sensor_id;sensor_type;location;lat;lon;timestamp;temperature;humidity
38910;DHT22;24676;51.360;12.354;2023-04-25T00:00:03;7.90;99.90
38910;DHT22;24676;51.360;12.354;2023-04-25T00:02:50;8.00;99.90
38910;DHT22;24676;51.360;12.354;2023-04-25T00:05:34;8.10;99.90
38910;DHT22;24676;51.360;12.354;2023-04-25T00:08:20;8.10;99.90
38910;DHT22;24676;51.360;12.354;2023-04-25T00:11:04;8.20;99.90
38910;DHT22;24676;51.360;12.354;2023-04-25T00:13:49;8.20;99.90
38910;DHT22;24676;51.360;12.354;2023-04-25T00:16:36;8.20;99.90
38910;DHT22;24676;51.360;12.354;2023-04-25T00:19:21;8.20;99.90
38910;DHT22;24676;51.360;12.354;2023-04-25T00:22:05;8.10;99.90
38910;DHT22;24676;51.360;12.354;2023-04-25T00:24:50;8.10;99.90
38910;DHT22;24676;51.360;12.354;2023-04-25T00:27:34;8.00;99.90
38910;DHT22;24676;51.360;12.354;2023-04-25T00:30:18;7.90;99.90
38910;DHT22;24676;51.360;12.354;2023-04-25T00:33:03;7.90;99.90
38910;DHT22;24676;51.360;12.354;2023-04-25T00:35:47;7.80;99.90
38910;DHT22;24676;51.360;12.354;2023-04-25T00:38:31;7.70;99.90
38910;DHT22;24676;51.360;12.354;2023-04-25T00:41:15;7.60;99.90
38910;DHT22;24676;51.360;12.354;2023-04-25T00:44:01;7.50;99.90
38910;DHT22;24676;51.360;12.354;2023-04-25T00:46:47;7.50;99.90
38910;DHT22;24676;51.360;12.354;2023-04-25T00:49:33;7.40;99.90
38910;DHT22;24676;51.360;12.354;2023-04-25T00:52:17;7.30;99.90
38910;DHT22;24676;51.360;12.354;2023-04-25T00:55:02;7.20;99.90
38910;DHT22;24676;51.360;12.354;2023-04-25T00:57:46;7.10;99.90
38910;DHT22;24676;51.360;12.354;2023-04-25T01:00:31;7.00;99.90
38910;DHT22;24676;51.360;12.354;2023-04-25T01:03:15;6.90;99.90
38910;DHT22;24676;51.360;12.354;2023-04-25T01:06:09;6.90;99.90
38910;DHT22;24676;51.360;12.354;2023-04-25T01:08:54;6.80;99.90
38910;DHT22;24676;51.360;12.354;2023-04-25T01:11:38;6.70;99.90
38910;DHT22;24676;51.360;12.354;2023-04-25T01:14:24;6.70;99.90
38910;DHT22;24676;51.360;12.354;2023-04-25T01:17:09;6.70;99.90
38910;DHT22;24676;51.360;12.354;2023-04-25T01:19:53;6.60;99.90
38910;DHT22;24676;51.360;12.354;2023-04-25T01:22:37;6.60;99.90
38910;DHT22;24676;51.360;12.354;2023-04-25T01:25:24;6.50;99.90
38910;DHT22;24676;51.360;12.354;2023-04-25T01:28:08;6.50;99.90
38910;DHT22;24676;51.360;12.354;2023-04-25T01:30:53;6.50;99.90
38910;DHT22;24676;51.360;12.354;2023-04-25T01:33:38;6.50;99.90
38910;DHT22;24676;51.360;12.354;2023-04-25T01:36:23;6.50;99.90
38910;DHT22;24676;51.360;12.354;2023-04-25T01:39:07;6.40;99.90
38910;DHT22;24676;51.360;12.354;2023-04-25T01:41:51;6.50;99.90
38910;DHT22;24676;51.360;12.354;2023-04-25T01:44:35;6.40;99.90
38910;DHT22;24676;51.360;12.354;2023-04-25T01:47:19;6.40;99.90
38910;DHT22;24676;51.360;12.354;2023-04-25T01:50:05;6.40;99.90
38910;DHT22;24676;51.360;12.354;2023-04-25T01:52:50;6.40;99.90
38910;DHT22;24676;51.360;12.354;2023-04-25T01:55:35;6.40;99.90
38910;DHT22;24676;51.360;12.354;2023-04-25T01:58:19;6.40;99.90
38910;DHT22;24676;51.360;12.354;2023-04-25T02:01:04;6.40;99.90
38910;DHT22;24676;51.360;12.354;2023-04-25T02:03:48;6.40;99.90
38910;DHT22;24676;51.360;12.354;2023-04-25T02:06:32;6.40;99.90
38910;DHT22;24676;51.360;12.354;2023-04-25T02:09:16;6.30;99.90
38910;DHT22;24676;51.360;12.354;2023-04-25T02:12:01;6.20;99.90
38910;DHT22;24676;51.360;12.354;2023-04-25T02:14:45;6.20;99.90
38910;DHT22;24676;51.360;12.354;2023-04-25T02:17:29;6.20;99.90
38910;DHT22;24676;51.360;12.354;2023-04-25T02:20:15;6.20;99.90
38910;DHT22;24676;51.360;12.354;2023-04-25T02:22:59;6.20;99.90
38910;DHT22;24676;51.360;12.354;2023-04-25T02:25:44;6.20;99.90
38910;DHT22;24676;51.360;12.354;2023-04-25T02:28:28;6.20;99.90
38910;DHT22;24676;51.360;12.354;2023-04-25T02:31:13;6.10;99.90
38910;DHT22;24676;51.360;12.354;2023-04-25T02:33:57;6.10;99.90
38910;DHT22;24676;51.360;12.354;2023-04-25T02:36:42;6.10;99.90
38910;DHT22;24676;51.360;12.354;2023-04-25T02:39:26;6.00;99.90
38910;DHT22;24676;51.360;12.354;2023-04-25T02:42:11;6.00;99.90
38910;DHT22;24676;51.360;12.354;2023-04-25T02:44:55;6.00;99.90
38910;DHT22;24676;51.360;12.354;2023-04-25T02:47:40;6.00;99.90
38910;DHT22;24676;51.360;12.354;2023-04-25T02:50:24;5.90;99.90
38910;DHT22;24676;51.360;12.354;2023-04-25T02:53:08;5.90;99.90
38910;DHT22;24676;51.360;12.354;2023-04-25T02:55:52;5.90;99.90
38910;DHT22;24676;51.360;12.354;2023-04-25T02:58:37;5.80;99.90
38910;DHT22;24676;51.360;12.354;2023-04-25T03:01:21;5.70;99.90
38910;DHT22;24676;51.360;12.354;2023-04-25T03:04:05;5.70;99.90
38910;DHT22;24676;51.360;12.354;2023-04-25T03:06:53;5.60;99.90
38910;DHT22;24676;51.360;12.354;2023-04-25T03:09:37;5.60;99.90
38910;DHT22;24676;51.360;12.354;2023-04-25T03:12:21;5.60;99.90
38910;DHT22;24676;51.360;12.354;2023-04-25T03:15:05;5.60;99.90
38910;DHT22;24676;51.360;12.354;2023-04-25T03:17:50;5.50;99.90
38910;DHT22;24676;51.360;12.354;2023-04-25T03:20:34;5.50;99.90
38910;DHT22;24676;51.360;12.354;2023-04-25T03:23:18;5.40;99.90
38910;DHT22;24676;51.360;12.354;2023-04-25T03:26:03;5.40;99.90
38910;DHT22;24676;51.360;12.354;2023-04-25T03:28:47;5.40;99.90
38910;DHT22;24676;51.360;12.354;2023-04-25T03:31:32;5.40;99.90
38910;DHT22;24676;51.360;12.354;2023-04-25T03:34:16;5.40;99.90
38910;DHT22;24676;51.360;12.354;2023-04-25T03:37:00;5.40;99.90
38910;DHT22;24676;51.360;12.354;2023-04-25T03:39:44;5.30;99.90
38910;DHT22;24676;51.360;12.354;2023-04-25T03:42:29;5.20;99.90
38910;DHT22;24676;51.360;12.354;2023-04-25T03:45:13;5.20;99.90
38910;DHT22;24676;51.360;12.354;2023-04-25T03:47:58;5.10;99.90
38910;DHT22;24676;51.360;12.354;2023-04-25T03:50:42;5.10;99.90
38910;DHT22;24676;51.360;12.354;2023-04-25T03:53:27;5.20;99.90
38910;DHT22;24676;51.360;12.354;2023-04-25T03:56:12;5.20;99.90
38910;DHT22;24676;51.360;12.354;2023-04-25T03:58:56;5.20;99.90
38910;DHT22;24676;51.360;12.354;2023-04-25T04:01:40;5.20;99.90
38910;DHT22;24676;51.360;12.354;2023-04-25T04:04:24;5.20;99.90
38910;DHT22;24676;51.360;12.354;2023-04-25T04:07:08;5.10;99.90
38910;DHT22;24676;51.360;12.354;2023-04-25T04:09:53;5.10;99.90
38910;DHT22;24676;51.360;12.354;2023-04-25T04:12:38;5.10;99.90
38910;DHT22;24676;51.360;12.354;2023-04-25T04:15:22;5.10;99.90
38910;DHT22;24676;51.360;12.354;2023-04-25T04:18:06;5.10;99.90
38910;DHT22;24676;51.360;12.354;2023-04-25T04:20:51;5.10;99.90
38910;DHT22;24676;51.360;12.354;2023-04-25T04:23:35;5.10;99.90
38910;DHT22;24676;51.360;12.354;2023-04-25T04:26:20;5.20;99.90
38910;DHT22;24676;51.360;12.354;2023-04-25T04:29:07;5.20;99.90
38910;DHT22;24676;51.360;12.354;2023-04-25T04:31:52;5.20;99.90
38910;DHT22;24676;51.360;12.354;2023-04-25T04:34:37;5.30;99.90
38910;DHT22;24676;51.360;12.354;2023-04-25T04:37:21;5.30;99.90
38910;DHT22;24676;51.360;12.354;2023-04-25T04:40:07;5.40;99.90
38910;DHT22;24676;51.360;12.354;2023-04-25T04:42:52;5.50;99.90
38910;DHT22;24676;51.360;12.354;2023-04-25T04:45:37;5.50;99.90
38910;DHT22;24676;51.360;12.354;2023-04-25T04:48:24;5.60;99.90
38910;DHT22;24676;51.360;12.354;2023-04-25T04:51:08;5.80;99.90
38910;DHT22;24676;51.360;12.354;2023-04-25T04:53:52;5.90;99.90
38910;DHT22;24676;51.360;12.354;2023-04-25T04:56:36;6.00;99.90
38910;DHT22;24676;51.360;12.354;2023-04-25T04:59:20;6.20;99.90
38910;DHT22;24676;51.360;12.354;2023-04-25T05:02:05;6.50;99.90
38910;DHT22;24676;51.360;12.354;2023-04-25T05:04:49;6.70;99.90
38910;DHT22;24676;51.360;12.354;2023-04-25T05:07:35;6.80;99.90
38910;DHT22;24676;51.360;12.354;2023-04-25T05:10:20;7.00;99.90
38910;DHT22;24676;51.360;12.354;2023-04-25T05:13:04;7.00;99.90
38910;DHT22;24676;51.360;12.354;2023-04-25T05:15:49;7.30;99.90
38910;DHT22;24676;51.360;12.354;2023-04-25T05:18:33;7.60;99.90
38910;DHT22;24676;51.360;12.354;2023-04-25T05:21:17;9.00;99.90
38910;DHT22;24676;51.360;12.354;2023-04-25T05:24:02;11.20;99.90
38910;DHT22;24676;51.360;12.354;2023-04-25T05:26:46;13.40;90.00
38910;DHT22;24676;51.360;12.354;2023-04-25T05:29:30;15.30;69.00
38910;DHT22;24676;51.360;12.354;2023-04-25T05:32:15;16.60;57.40
38910;DHT22;24676;51.360;12.354;2023-04-25T05:34:59;17.90;52.70
38910;DHT22;24676;51.360;12.354;2023-04-25T05:37:43;18.20;50.80
38910;DHT22;24676;51.360;12.354;2023-04-25T05:40:28;18.60;48.80
38910;DHT22;24676;51.360;12.354;2023-04-25T05:43:12;18.00;48.60
38910;DHT22;24676;51.360;12.354;2023-04-25T05:45:56;18.80;47.90
38910;DHT22;24676;51.360;12.354;2023-04-25T05:48:40;19.10;46.20
38910;DHT22;24676;51.360;12.354;2023-04-25T05:51:24;19.90;44.60
38910;DHT22;24676;51.360;12.354;2023-04-25T05:54:08;20.60;43.00
38910;DHT22;24676;51.360;12.354;2023-04-25T05:56:53;20.70;42.00
38910;DHT22;24676;51.360;12.354;2023-04-25T05:59:37;21.10;41.00
38910;DHT22;24676;51.360;12.354;2023-04-25T06:02:22;21.00;40.70
38910;DHT22;24676;51.360;12.354;2023-04-25T06:05:06;21.30;39.60
38910;DHT22;24676;51.360;12.354;2023-04-25T06:07:50;21.40;39.30
38910;DHT22;24676;51.360;12.354;2023-04-25T06:10:34;20.90;39.90
38910;DHT22;24676;51.360;12.354;2023-04-25T06:13:18;21.80;39.00
38910;DHT22;24676;51.360;12.354;2023-04-25T06:16:03;22.70;37.40
38910;DHT22;24676;51.360;12.354;2023-04-25T06:18:47;23.00;36.80
38910;DHT22;24676;51.360;12.354;2023-04-25T06:21:32;23.30;36.40
38910;DHT22;24676;51.360;12.354;2023-04-25T06:24:16;23.80;35.80
38910;DHT22;24676;51.360;12.354;2023-04-25T06:27:00;23.30;36.80
38910;DHT22;24676;51.360;12.354;2023-04-25T06:29:44;23.30;37.30
38910;DHT22;24676;51.360;12.354;2023-04-25T06:32:28;22.40;37.50
38910;DHT22;24676;51.360;12.354;2023-04-25T06:35:14;21.80;37.40
38910;DHT22;24676;51.360;12.354;2023-04-25T06:37:59;20.60;40.10
38910;DHT22;24676;51.360;12.354;2023-04-25T06:40:43;18.60;43.30
38910;DHT22;24676;51.360;12.354;2023-04-25T06:43:27;16.90;46.30
38910;DHT22;24676;51.360;12.354;2023-04-25T06:46:12;15.50;50.30
38910;DHT22;24676;51.360;12.354;2023-04-25T06:48:59;14.50;54.10
38910;DHT22;24676;51.360;12.354;2023-04-25T06:51:44;13.60;57.30
38910;DHT22;24676;51.360;12.354;2023-04-25T06:54:29;13.20;60.00
38910;DHT22;24676;51.360;12.354;2023-04-25T06:57:13;12.80;64.10
38910;DHT22;24676;51.360;12.354;2023-04-25T06:59:58;12.50;70.90
38910;DHT22;24676;51.360;12.354;2023-04-25T07:02:49;12.30;77.10
38910;DHT22;24676;51.360;12.354;2023-04-25T07:05:40;11.80;84.70
38910;DHT22;24676;51.360;12.354;2023-04-25T07:08:24;11.40;90.90
38910;DHT22;24676;51.360;12.354;2023-04-25T07:11:09;11.30;93.50
38910;DHT22;24676;51.360;12.354;2023-04-25T07:13:54;11.20;95.70
38910;DHT22;24676;51.360;12.354;2023-04-25T07:16:38;10.90;98.60
38910;DHT22;24676;51.360;12.354;2023-04-25T07:19:23;10.90;99.90
38910;DHT22;24676;51.360;12.354;2023-04-25T07:22:10;10.90;99.90
38910;DHT22;24676;51.360;12.354;2023-04-25T07:24:55;10.90;99.90
38910;DHT22;24676;51.360;12.354;2023-04-25T07:27:39;10.90;99.90
38910;DHT22;24676;51.360;12.354;2023-04-25T07:30:24;10.80;99.90
38910;DHT22;24676;51.360;12.354;2023-04-25T07:33:08;10.70;99.90
38910;DHT22;24676;51.360;12.354;2023-04-25T07:35:53;10.60;99.90
38910;DHT22;24676;51.360;12.354;2023-04-25T07:38:38;10.60;99.90
38910;DHT22;24676;51.360;12.354;2023-04-25T07:41:22;10.60;99.90
38910;DHT22;24676;51.360;12.354;2023-04-25T07:44:07;10.50;99.90
38910;DHT22;24676;51.360;12.354;2023-04-25T07:46:51;10.40;99.90
38910;DHT22;24676;51.360;12.354;2023-04-25T07:49:36;10.30;99.90
38910;DHT22;24676;51.360;12.354;2023-04-25T07:52:20;10.20;99.90
38910;DHT22;24676;51.360;12.354;2023-04-25T07:55:05;10.10;99.90
38910;DHT22;24676;51.360;12.354;2023-04-25T07:57:49;10.00;99.90
38910;DHT22;24676;51.360;12.354;2023-04-25T08:00:34;9.90;99.90
38910;DHT22;24676;51.360;12.354;2023-04-25T08:03:19;9.90;99.90
38910;DHT22;24676;51.360;12.354;2023-04-25T08:06:05;9.80;99.90
38910;DHT22;24676;51.360;12.354;2023-04-25T08:08:52;9.80;99.90
38910;DHT22;24676;51.360;12.354;2023-04-25T08:11:37;9.80;99.90
38910;DHT22;24676;51.360;12.354;2023-04-25T08:14:24;9.90;99.90
38910;DHT22;24676;51.360;12.354;2023-04-25T08:17:09;10.00;99.90
38910;DHT22;24676;51.360;12.354;2023-04-25T08:19:53;10.10;99.90
38910;DHT22;24676;51.360;12.354;2023-04-25T08:22:38;10.10;98.30
38910;DHT22;24676;51.360;12.354;2023-04-25T08:25:22;10.30;97.20
38910;DHT22;24676;51.360;12.354;2023-04-25T08:28:07;10.40;93.50
38910;DHT22;24676;51.360;12.354;2023-04-25T08:30:51;10.60;94.10
38910;DHT22;24676;51.360;12.354;2023-04-25T08:33:36;11.00;92.20
38910;DHT22;24676;51.360;12.354;2023-04-25T08:36:20;11.20;86.90
38910;DHT22;24676;51.360;12.354;2023-04-25T08:39:05;11.30;84.50
38910;DHT22;24676;51.360;12.354;2023-04-25T08:41:52;11.40;81.60
38910;DHT22;24676;51.360;12.354;2023-04-25T08:44:37;11.30;78.50
38910;DHT22;24676;51.360;12.354;2023-04-25T08:47:22;11.10;81.50
38910;DHT22;24676;51.360;12.354;2023-04-25T08:50:07;11.10;84.90
38910;DHT22;24676;51.360;12.354;2023-04-25T08:52:53;11.30;84.20
38910;DHT22;24676;51.360;12.354;2023-04-25T08:55:37;11.70;78.00
38910;DHT22;24676;51.360;12.354;2023-04-25T08:58:23;12.10;70.90
38910;DHT22;24676;51.360;12.354;2023-04-25T09:01:07;12.40;64.80
38910;DHT22;24676;51.360;12.354;2023-04-25T09:03:52;12.40;65.80
38910;DHT22;24676;51.360;12.354;2023-04-25T09:06:36;12.20;66.20
38910;DHT22;24676;51.360;12.354;2023-04-25T09:09:21;12.30;66.90
38910;DHT22;24676;51.360;12.354;2023-04-25T09:12:05;12.40;68.30
38910;DHT22;24676;51.360;12.354;2023-04-25T09:15:03;12.40;67.30
38910;DHT22;24676;51.360;12.354;2023-04-25T09:17:58;12.50;67.40
38910;DHT22;24676;51.360;12.354;2023-04-25T09:20:43;12.80;68.00
38910;DHT22;24676;51.360;12.354;2023-04-25T09:23:27;13.00;64.80
38910;DHT22;24676;51.360;12.354;2023-04-25T09:26:18;13.00;65.90
38910;DHT22;24676;51.360;12.354;2023-04-25T09:29:06;13.00;64.50
38910;DHT22;24676;51.360;12.354;2023-04-25T09:31:51;12.90;64.30
38910;DHT22;24676;51.360;12.354;2023-04-25T09:34:39;12.80;64.40
38910;DHT22;24676;51.360;12.354;2023-04-25T09:37:29;12.40;65.60
38910;DHT22;24676;51.360;12.354;2023-04-25T09:40:14;12.10;68.40
38910;DHT22;24676;51.360;12.354;2023-04-25T09:42:58;11.90;73.50
38910;DHT22;24676;51.360;12.354;2023-04-25T09:45:43;11.50;82.90
38910;DHT22;24676;51.360;12.354;2023-04-25T09:48:32;11.20;87.60
38910;DHT22;24676;51.360;12.354;2023-04-25T09:51:17;11.10;91.60
38910;DHT22;24676;51.360;12.354;2023-04-25T09:54:01;11.00;92.00
38910;DHT22;24676;51.360;12.354;2023-04-25T09:56:48;10.90;92.20
38910;DHT22;24676;51.360;12.354;2023-04-25T09:59:46;11.10;93.00
38910;DHT22;24676;51.360;12.354;2023-04-25T10:02:32;11.30;92.00
38910;DHT22;24676;51.360;12.354;2023-04-25T10:05:18;11.60;86.10
38910;DHT22;24676;51.360;12.354;2023-04-25T10:08:03;11.50;83.90
38910;DHT22;24676;51.360;12.354;2023-04-25T10:10:48;11.30;90.80
38910;DHT22;24676;51.360;12.354;2023-04-25T10:13:35;11.20;91.50
38910;DHT22;24676;51.360;12.354;2023-04-25T10:16:21;11.20;90.20
38910;DHT22;24676;51.360;12.354;2023-04-25T10:19:06;11.30;88.20
38910;DHT22;24676;51.360;12.354;2023-04-25T10:22:10;11.20;88.00
38910;DHT22;24676;51.360;12.354;2023-04-25T10:24:55;11.20;90.00
38910;DHT22;24676;51.360;12.354;2023-04-25T10:27:41;11.40;91.70
38910;DHT22;24676;51.360;12.354;2023-04-25T10:30:25;11.60;88.80
38910;DHT22;24676;51.360;12.354;2023-04-25T10:33:30;11.90;82.70
38910;DHT22;24676;51.360;12.354;2023-04-25T10:36:21;11.90;80.40
38910;DHT22;24676;51.360;12.354;2023-04-25T10:39:07;11.90;85.20
38910;DHT22;24676;51.360;12.354;2023-04-25T10:42:02;11.80;82.10
38910;DHT22;24676;51.360;12.354;2023-04-25T10:45:04;11.50;84.40
38910;DHT22;24676;51.360;12.354;2023-04-25T10:47:49;11.40;84.90
38910;DHT22;24676;51.360;12.354;2023-04-25T10:50:39;11.20;92.30
38910;DHT22;24676;51.360;12.354;2023-04-25T10:53:24;10.90;92.10
38910;DHT22;24676;51.360;12.354;2023-04-25T10:56:30;10.70;95.90
38910;DHT22;24676;51.360;12.354;2023-04-25T10:59:17;10.60;96.00
38910;DHT22;24676;51.360;12.354;2023-04-25T11:02:11;10.50;98.10
38910;DHT22;24676;51.360;12.354;2023-04-25T11:04:57;10.50;99.90
38910;DHT22;24676;51.360;12.354;2023-04-25T11:07:51;10.60;98.40
38910;DHT22;24676;51.360;12.354;2023-04-25T11:10:35;10.60;98.10
38910;DHT22;24676;51.360;12.354;2023-04-25T11:13:29;10.60;98.60
38910;DHT22;24676;51.360;12.354;2023-04-25T11:16:24;10.60;98.30
38910;DHT22;24676;51.360;12.354;2023-04-25T11:19:08;10.50;99.00
38910;DHT22;24676;51.360;12.354;2023-04-25T11:21:56;10.50;98.30
38910;DHT22;24676;51.360;12.354;2023-04-25T11:24:41;10.40;98.90
38910;DHT22;24676;51.360;12.354;2023-04-25T11:27:27;10.30;96.70
38910;DHT22;24676;51.360;12.354;2023-04-25T11:30:15;10.30;97.90
38910;DHT22;24676;51.360;12.354;2023-04-25T11:32:59;10.30;93.30
38910;DHT22;24676;51.360;12.354;2023-04-25T11:35:47;10.40;89.40
38910;DHT22;24676;51.360;12.354;2023-04-25T11:38:31;10.40;83.50
38910;DHT22;24676;51.360;12.354;2023-04-25T11:41:16;10.40;81.30
38910;DHT22;24676;51.360;12.354;2023-04-25T11:44:00;10.50;83.20
38910;DHT22;24676;51.360;12.354;2023-04-25T11:46:45;10.60;80.00
38910;DHT22;24676;51.360;12.354;2023-04-25T11:49:32;10.80;76.90
38910;DHT22;24676;51.360;12.354;2023-04-25T11:52:17;11.00;74.10
38910;DHT22;24676;51.360;12.354;2023-04-25T11:55:08;11.20;73.80
38910;DHT22;24676;51.360;12.354;2023-04-25T11:58:02;11.30;71.10
38910;DHT22;24676;51.360;12.354;2023-04-25T12:00:47;11.30;69.30
38910;DHT22;24676;51.360;12.354;2023-04-25T12:03:31;11.20;69.30
38910;DHT22;24676;51.360;12.354;2023-04-25T12:06:17;11.20;66.20
38910;DHT22;24676;51.360;12.354;2023-04-25T12:09:06;11.00;66.20
38910;DHT22;24676;51.360;12.354;2023-04-25T12:11:55;11.00;67.90
38910;DHT22;24676;51.360;12.354;2023-04-25T12:14:40;11.00;68.80
38910;DHT22;24676;51.360;12.354;2023-04-25T12:17:30;11.30;65.40
38910;DHT22;24676;51.360;12.354;2023-04-25T12:20:20;11.90;64.30
38910;DHT22;24676;51.360;12.354;2023-04-25T12:23:05;12.40;59.40
38910;DHT22;24676;51.360;12.354;2023-04-25T12:25:50;12.60;58.00
38910;DHT22;24676;51.360;12.354;2023-04-25T12:28:34;12.60;57.30
38910;DHT22;24676;51.360;12.354;2023-04-25T12:31:19;12.40;57.60
38910;DHT22;24676;51.360;12.354;2023-04-25T12:34:03;11.90;58.00
38910;DHT22;24676;51.360;12.354;2023-04-25T12:36:48;11.60;59.10
38910;DHT22;24676;51.360;12.354;2023-04-25T12:39:32;11.20;60.50
38910;DHT22;24676;51.360;12.354;2023-04-25T12:42:17;10.90;61.20
38910;DHT22;24676;51.360;12.354;2023-04-25T12:45:01;10.90;61.20
38910;DHT22;24676;51.360;12.354;2023-04-25T12:47:46;10.90;61.50
38910;DHT22;24676;51.360;12.354;2023-04-25T12:50:30;10.90;59.70
38910;DHT22;24676;51.360;12.354;2023-04-25T12:53:16;10.90;57.90
38910;DHT22;24676;51.360;12.354;2023-04-25T12:56:00;11.00;57.70
38910;DHT22;24676;51.360;12.354;2023-04-25T12:58:44;11.00;55.30
38910;DHT22;24676;51.360;12.354;2023-04-25T13:01:29;10.80;55.60
38910;DHT22;24676;51.360;12.354;2023-04-25T13:04:13;10.80;55.60
38910;DHT22;24676;51.360;12.354;2023-04-25T13:06:58;10.80;55.20
38910;DHT22;24676;51.360;12.354;2023-04-25T13:09:42;10.70;54.60
38910;DHT22;24676;51.360;12.354;2023-04-25T13:12:27;10.60;54.40
38910;DHT22;24676;51.360;12.354;2023-04-25T13:15:12;10.60;54.70
38910;DHT22;24676;51.360;12.354;2023-04-25T13:17:59;10.50;55.60
38910;DHT22;24676;51.360;12.354;2023-04-25T13:20:44;10.50;55.10
38910;DHT22;24676;51.360;12.354;2023-04-25T13:23:29;10.50;54.90
38910;DHT22;24676;51.360;12.354;2023-04-25T13:26:14;10.50;55.30
38910;DHT22;24676;51.360;12.354;2023-04-25T13:29:02;10.50;55.60
38910;DHT22;24676;51.360;12.354;2023-04-25T13:31:47;10.70;56.60
38910;DHT22;24676;51.360;12.354;2023-04-25T13:34:32;11.10;55.60
38910;DHT22;24676;51.360;12.354;2023-04-25T13:37:16;11.50;55.60
38910;DHT22;24676;51.360;12.354;2023-04-25T13:40:01;12.00;54.00
38910;DHT22;24676;51.360;12.354;2023-04-25T13:42:52;12.50;53.10
38910;DHT22;24676;51.360;12.354;2023-04-25T13:45:36;13.00;51.40
38910;DHT22;24676;51.360;12.354;2023-04-25T13:48:20;13.30;49.30
38910;DHT22;24676;51.360;12.354;2023-04-25T13:51:06;13.50;49.70
38910;DHT22;24676;51.360;12.354;2023-04-25T13:53:54;13.50;48.80
38910;DHT22;24676;51.360;12.354;2023-04-25T13:56:38;13.40;48.30
38910;DHT22;24676;51.360;12.354;2023-04-25T13:59:23;13.40;49.60
38910;DHT22;24676;51.360;12.354;2023-04-25T14:02:07;13.40;48.70
38910;DHT22;24676;51.360;12.354;2023-04-25T14:04:54;13.30;47.00
38910;DHT22;24676;51.360;12.354;2023-04-25T14:07:38;12.90;47.00
38910;DHT22;24676;51.360;12.354;2023-04-25T14:10:23;12.70;47.10
38910;DHT22;24676;51.360;12.354;2023-04-25T14:13:08;12.70;46.50
38910;DHT22;24676;51.360;12.354;2023-04-25T14:15:52;12.50;45.40
38910;DHT22;24676;51.360;12.354;2023-04-25T14:18:36;12.50;44.90
38910;DHT22;24676;51.360;12.354;2023-04-25T14:21:21;12.40;45.00
38910;DHT22;24676;51.360;12.354;2023-04-25T14:24:05;12.40;45.80
38910;DHT22;24676;51.360;12.354;2023-04-25T14:26:50;12.20;45.50
38910;DHT22;24676;51.360;12.354;2023-04-25T14:29:34;12.10;45.60
38910;DHT22;24676;51.360;12.354;2023-04-25T14:32:19;11.90;46.90
38910;DHT22;24676;51.360;12.354;2023-04-25T14:35:04;11.70;47.60
38910;DHT22;24676;51.360;12.354;2023-04-25T14:37:50;11.70;47.70
38910;DHT22;24676;51.360;12.354;2023-04-25T14:40:34;11.80;46.50
38910;DHT22;24676;51.360;12.354;2023-04-25T14:43:19;11.90;46.40
38910;DHT22;24676;51.360;12.354;2023-04-25T14:46:04;12.00;45.90
38910;DHT22;24676;51.360;12.354;2023-04-25T14:48:48;12.10;45.30
38910;DHT22;24676;51.360;12.354;2023-04-25T14:51:33;12.10;44.40
38910;DHT22;24676;51.360;12.354;2023-04-25T14:54:17;12.10;44.40
38910;DHT22;24676;51.360;12.354;2023-04-25T14:57:02;12.10;45.50
38910;DHT22;24676;51.360;12.354;2023-04-25T14:59:47;12.20;46.90
38910;DHT22;24676;51.360;12.354;2023-04-25T15:02:31;12.10;46.70
38910;DHT22;24676;51.360;12.354;2023-04-25T15:05:15;12.00;48.10
38910;DHT22;24676;51.360;12.354;2023-04-25T15:08:00;11.90;48.90
38910;DHT22;24676;51.360;12.354;2023-04-25T15:10:45;11.70;49.50
38910;DHT22;24676;51.360;12.354;2023-04-25T15:13:29;11.60;48.60
38910;DHT22;24676;51.360;12.354;2023-04-25T15:16:14;11.50;49.90
38910;DHT22;24676;51.360;12.354;2023-04-25T15:18:58;11.40;50.20
38910;DHT22;24676;51.360;12.354;2023-04-25T15:21:42;11.50;50.80
38910;DHT22;24676;51.360;12.354;2023-04-25T15:24:27;11.50;50.30
38910;DHT22;24676;51.360;12.354;2023-04-25T15:27:13;11.60;50.00
38910;DHT22;24676;51.360;12.354;2023-04-25T15:29:57;11.60;49.90
38910;DHT22;24676;51.360;12.354;2023-04-25T15:32:45;11.60;49.20
38910;DHT22;24676;51.360;12.354;2023-04-25T15:35:30;11.60;49.40
38910;DHT22;24676;51.360;12.354;2023-04-25T15:38:15;11.60;49.40
38910;DHT22;24676;51.360;12.354;2023-04-25T15:40:59;11.70;49.70
38910;DHT22;24676;51.360;12.354;2023-04-25T15:43:43;11.60;49.90
38910;DHT22;24676;51.360;12.354;2023-04-25T15:46:28;11.60;49.70
38910;DHT22;24676;51.360;12.354;2023-04-25T15:49:14;11.50;49.30
38910;DHT22;24676;51.360;12.354;2023-04-25T15:51:58;11.50;49.60
38910;DHT22;24676;51.360;12.354;2023-04-25T15:54:43;11.40;50.30
38910;DHT22;24676;51.360;12.354;2023-04-25T15:57:28;11.40;52.00
38910;DHT22;24676;51.360;12.354;2023-04-25T16:00:12;11.30;50.90
38910;DHT22;24676;51.360;12.354;2023-04-25T16:02:57;11.30;51.60
38910;DHT22;24676;51.360;12.354;2023-04-25T16:05:45;11.20;52.00
38910;DHT22;24676;51.360;12.354;2023-04-25T16:08:32;11.20;53.90
38910;DHT22;24676;51.360;12.354;2023-04-25T16:11:18;11.20;51.60
38910;DHT22;24676;51.360;12.354;2023-04-25T16:14:03;11.00;51.60
38910;DHT22;24676;51.360;12.354;2023-04-25T16:16:47;10.90;52.40
38910;DHT22;24676;51.360;12.354;2023-04-25T16:19:31;10.80;52.80
38910;DHT22;24676;51.360;12.354;2023-04-25T16:22:16;10.70;52.60
38910;DHT22;24676;51.360;12.354;2023-04-25T16:25:00;10.60;52.90
38910;DHT22;24676;51.360;12.354;2023-04-25T16:27:44;10.50;53.70
38910;DHT22;24676;51.360;12.354;2023-04-25T16:30:28;10.50;54.20
38910;DHT22;24676;51.360;12.354;2023-04-25T16:33:13;10.50;54.90
38910;DHT22;24676;51.360;12.354;2023-04-25T16:35:57;10.40;55.80
38910;DHT22;24676;51.360;12.354;2023-04-25T16:38:41;10.30;55.60
38910;DHT22;24676;51.360;12.354;2023-04-25T16:41:26;10.30;55.90
38910;DHT22;24676;51.360;12.354;2023-04-25T16:44:11;10.30;56.20
38910;DHT22;24676;51.360;12.354;2023-04-25T16:46:55;10.30;57.20
38910;DHT22;24676;51.360;12.354;2023-04-25T16:49:39;10.20;56.80
38910;DHT22;24676;51.360;12.354;2023-04-25T16:52:24;10.20;57.60
38910;DHT22;24676;51.360;12.354;2023-04-25T16:55:08;10.20;58.20
38910;DHT22;24676;51.360;12.354;2023-04-25T16:57:53;10.20;58.20
38910;DHT22;24676;51.360;12.354;2023-04-25T17:00:38;10.10;59.20
38910;DHT22;24676;51.360;12.354;2023-04-25T17:03:23;10.10;58.80
38910;DHT22;24676;51.360;12.354;2023-04-25T17:06:08;10.00;59.30
38910;DHT22;24676;51.360;12.354;2023-04-25T17:08:52;10.00;59.80
38910;DHT22;24676;51.360;12.354;2023-04-25T17:11:36;10.00;60.20